createdAt,value
2018-12-22T00:00:24.969Z,5.87
2018-12-22T00:02:52.589Z,11.20
2018-12-22T00:05:20.129Z,7.97
2018-12-22T00:07:47.761Z,10.27
2018-12-22T00:10:15.298Z,13.40
2018-12-22T00:12:44.437Z,11.53
2018-12-22T00:15:11.964Z,11.43
2018-12-22T00:17:39.582Z,13.23
2018-12-22T00:20:07.289Z,14.27
2018-12-22T00:22:34.822Z,12.33
2018-12-22T00:25:02.457Z,14.70
2018-12-22T00:27:29.994Z,16.87
2018-12-22T00:29:57.918Z,16.43
2018-12-22T00:32:25.496Z,10.23
2018-12-22T00:34:53.114Z,8.73
2018-12-22T00:37:20.680Z,11.90
2018-12-22T00:39:48.221Z,16.00
2018-12-22T00:42:16.204Z,16.20
2018-12-22T00:44:43.770Z,25.50
2018-12-22T00:47:11.894Z,23.33
2018-12-22T00:49:39.431Z,15.93
2018-12-22T00:52:07.211Z,20.50
2018-12-22T00:54:34.849Z,12.13
2018-12-22T00:57:02.685Z,12.27
2018-12-22T00:59:30.281Z,16.23
2018-12-22T01:01:58.079Z,12.77
2018-12-22T01:04:25.652Z,15.97
2018-12-22T01:06:53.527Z,11.47
2018-12-22T01:09:21.438Z,4.43
2018-12-22T01:11:49.109Z,6.70
2018-12-22T01:14:16.657Z,9.03
2018-12-22T01:16:44.848Z,2.80
2018-12-22T01:19:12.578Z,7.00
2018-12-22T01:21:40.550Z,6.87
2018-12-22T01:24:08.084Z,7.43
2018-12-22T01:26:36.370Z,5.70
2018-12-22T01:29:03.892Z,4.20
2018-12-22T01:31:31.520Z,10.67
2018-12-22T01:33:59.051Z,7.13
2018-12-22T01:36:26.983Z,15.03
2018-12-22T01:38:54.529Z,5.10
2018-12-22T01:41:22.561Z,9.10
2018-12-22T01:43:50.135Z,12.03
2018-12-22T01:46:18.234Z,9.10
2018-12-22T01:48:45.766Z,11.67
2018-12-22T01:51:13.441Z,12.03
2018-12-22T01:53:40.982Z,19.43
2018-12-22T01:56:08.602Z,11.57
2018-12-22T01:58:36.148Z,8.67
2018-12-22T02:01:03.785Z,13.57
2018-12-22T02:03:31.741Z,9.93
2018-12-22T02:05:59.277Z,16.17
2018-12-22T02:08:26.958Z,12.00
2018-12-22T02:10:54.627Z,18.07
2018-12-22T02:13:22.542Z,11.80
2018-12-22T02:15:50.080Z,7.77
2018-12-22T02:18:17.715Z,16.40
2018-12-22T02:20:45.589Z,7.93
2018-12-22T02:23:13.591Z,29.10
2018-12-22T02:25:41.130Z,17.87
2018-12-22T02:28:08.887Z,21.10
2018-12-22T02:30:36.530Z,13.90
2018-12-22T02:33:04.166Z,15.37
2018-12-22T02:35:31.699Z,19.17
2018-12-22T02:37:59.541Z,23.93
2018-12-22T02:40:27.088Z,8.60
2018-12-22T02:42:54.720Z,17.90
2018-12-22T02:45:22.249Z,16.60
2018-12-22T02:47:50.104Z,14.30
2018-12-22T02:50:17.646Z,15.17
2018-12-22T02:52:45.519Z,38.03
2018-12-22T02:55:13.061Z,8.63
2018-12-22T02:57:41.041Z,19.80
2018-12-22T03:00:10.658Z,22.00
2018-12-22T03:02:38.437Z,25.63
2018-12-22T03:05:06.053Z,21.33
2018-12-22T03:07:33.672Z,7.90
2018-12-22T03:10:01.211Z,18.30
2018-12-22T03:12:29.293Z,16.67
2018-12-22T03:14:56.852Z,10.23
2018-12-22T03:17:24.614Z,11.60
2018-12-22T03:19:52.640Z,13.00
2018-12-22T03:22:20.491Z,19.23
2018-12-22T03:24:48.016Z,14.40
2018-12-22T03:27:15.631Z,20.57
2018-12-22T03:29:43.182Z,14.70
2018-12-22T03:32:11.861Z,14.80
2018-12-22T03:34:39.478Z,16.47
2018-12-22T03:37:07.006Z,15.37
2018-12-22T03:39:35.914Z,18.17
2018-12-22T03:42:03.644Z,12.47
2018-12-22T03:44:31.180Z,29.30
2018-12-22T03:46:59.200Z,38.87
2018-12-22T03:49:26.862Z,24.17
2018-12-22T03:51:54.464Z,22.70
2018-12-22T03:54:21.988Z,18.30
2018-12-22T03:56:49.610Z,12.13
2018-12-22T03:59:24.717Z,12.33
2018-12-22T04:01:46.990Z,21.47
2018-12-22T04:04:14.519Z,17.73
2018-12-22T04:06:43.740Z,14.87
2018-12-22T04:09:11.517Z,15.00
2018-12-22T04:11:39.161Z,13.33
2018-12-22T04:14:06.687Z,7.17
2018-12-22T04:16:34.383Z,12.37
2018-12-22T04:19:01.924Z,6.10
2018-12-22T04:21:30.388Z,5.20
2018-12-22T04:23:57.913Z,8.80
2018-12-22T04:26:25.684Z,12.93
2018-12-22T04:28:53.209Z,4.20
2018-12-22T04:31:21.176Z,9.97
2018-12-22T04:33:48.724Z,19.97
2018-12-22T04:36:16.745Z,7.97
2018-12-22T04:38:44.285Z,10.00
2018-12-22T04:41:12.063Z,5.47
2018-12-22T04:43:39.613Z,5.73
2018-12-22T04:46:07.390Z,14.37
2018-12-22T04:48:35.534Z,9.03
2018-12-22T04:51:03.287Z,5.30
2018-12-22T04:53:30.820Z,8.17
2018-12-22T04:55:58.662Z,3.10
2018-12-22T04:58:26.278Z,5.17
2018-12-22T05:00:55.417Z,5.67
2018-12-22T05:03:22.931Z,3.80
2018-12-22T05:05:50.477Z,4.30
2018-12-22T05:08:18.973Z,6.03
2018-12-22T05:10:46.504Z,3.10
2018-12-22T05:13:14.080Z,6.73
2018-12-22T05:15:41.762Z,1.37
2018-12-22T05:18:09.290Z,6.10
2018-12-22T05:20:37.748Z,10.40
2018-12-22T05:23:05.268Z,4.53
2018-12-22T05:25:33.462Z,11.33
2018-12-22T05:28:01.017Z,5.63
2018-12-22T05:30:28.743Z,17.57
2018-12-22T05:32:56.644Z,9.40
2018-12-22T05:35:24.526Z,9.47
2018-12-22T05:37:52.042Z,3.73
2018-12-22T05:40:19.574Z,10.40
2018-12-22T05:42:47.999Z,3.40
2018-12-22T05:45:15.519Z,5.67
2018-12-22T05:47:43.400Z,8.13
2018-12-22T05:50:10.919Z,4.53
2018-12-22T05:52:38.593Z,6.90
2018-12-22T05:55:06.122Z,3.13
2018-12-22T05:57:33.919Z,4.60
2018-12-22T06:00:01.483Z,5.13
2018-12-22T06:02:29.624Z,1.60
2018-12-22T06:04:57.146Z,4.40
2018-12-22T06:07:24.942Z,7.93
2018-12-22T06:09:52.461Z,12.13
2018-12-22T06:12:20.256Z,4.90
2018-12-22T06:14:47.883Z,13.50
2018-12-22T06:17:15.574Z,7.10
2018-12-22T06:19:43.116Z,7.53
2018-12-22T06:22:11.463Z,4.93
2018-12-22T06:24:39.008Z,3.03
2018-12-22T06:27:06.642Z,18.73
2018-12-22T06:29:34.184Z,9.57
2018-12-22T06:32:03.193Z,11.20
2018-12-22T06:34:30.725Z,10.13
2018-12-22T06:36:58.732Z,6.83
2018-12-22T06:39:26.260Z,6.93
2018-12-22T06:41:54.148Z,8.20
2018-12-22T06:44:21.690Z,5.00
2018-12-22T06:46:49.336Z,3.73
2018-12-22T06:49:16.994Z,6.93
2018-12-22T06:51:44.596Z,6.53
2018-12-22T06:54:12.213Z,9.53
2018-12-22T06:56:39.750Z,8.13
2018-12-22T06:59:08.089Z,12.47
2018-12-22T07:01:35.658Z,8.80
2018-12-22T07:04:03.262Z,10.80
2018-12-22T07:06:37.030Z,8.50
2018-12-22T07:09:06.356Z,17.00
2018-12-22T07:11:33.912Z,13.83
2018-12-22T07:14:01.734Z,9.10
2018-12-22T07:16:29.265Z,16.10
2018-12-22T07:18:57.058Z,15.63
2018-12-22T07:21:24.898Z,11.80
2018-12-22T07:23:52.627Z,18.60
2018-12-22T07:26:20.154Z,14.70
2018-12-22T07:28:48.728Z,11.03
2018-12-22T07:31:16.256Z,21.93
2018-12-22T07:33:45.310Z,24.17
2018-12-22T07:36:12.857Z,10.83
2018-12-22T07:38:41.098Z,16.30
2018-12-22T07:41:09.066Z,10.90
2018-12-22T07:43:36.669Z,21.10
2018-12-22T07:46:04.205Z,29.37
2018-12-22T07:48:32.074Z,28.73
2018-12-22T07:50:59.618Z,21.40
2018-12-22T07:53:27.231Z,14.50
2018-12-22T07:55:54.778Z,12.83
2018-12-22T07:58:22.388Z,19.00
2018-12-22T08:00:49.928Z,15.70
2018-12-22T08:03:18.050Z,13.77
2018-12-22T08:05:45.590Z,20.53
2018-12-22T08:08:13.409Z,30.77
2018-12-22T08:10:40.943Z,14.57
2018-12-22T08:13:08.553Z,20.47
2018-12-22T08:15:36.574Z,18.33
2018-12-22T08:18:04.640Z,35.67
2018-12-22T08:20:33.632Z,17.10
2018-12-22T08:23:01.382Z,27.73
2018-12-22T08:25:29.016Z,26.63
2018-12-22T08:27:56.624Z,15.17
2018-12-22T08:30:24.210Z,21.97
2018-12-22T08:32:51.812Z,21.50
2018-12-22T08:35:19.360Z,23.27
2018-12-22T08:37:47.280Z,26.40
2018-12-22T08:40:16.362Z,42.20
2018-12-22T08:42:44.080Z,28.20
2018-12-22T08:45:11.629Z,20.37
2018-12-22T08:47:39.279Z,42.33
2018-12-22T08:50:09.413Z,24.47
2018-12-22T08:52:37.127Z,21.83
2018-12-22T08:55:06.330Z,35.90
2018-12-22T08:57:33.930Z,20.43
2018-12-22T09:00:01.850Z,27.03
2018-12-22T09:02:29.504Z,32.20
2018-12-22T09:04:57.086Z,29.07
2018-12-22T09:07:25.043Z,31.20
2018-12-22T09:09:52.622Z,25.60
2018-12-22T09:12:20.346Z,25.93
2018-12-22T09:14:47.906Z,21.43
2018-12-22T09:17:15.527Z,26.27
2018-12-22T09:19:43.562Z,22.93
2018-12-22T09:22:11.616Z,33.47
2018-12-22T09:24:39.510Z,43.30
2018-12-22T09:27:07.049Z,252.90
2018-12-22T09:29:35.071Z,105.27
2018-12-22T09:32:02.685Z,54.47
2018-12-22T09:34:30.334Z,42.30
2018-12-22T09:36:57.892Z,41.67
2018-12-22T09:39:25.567Z,47.43
2018-12-22T09:41:53.351Z,33.87
2018-12-22T09:44:21.335Z,31.67
2018-12-22T09:46:49.116Z,22.87
2018-12-22T09:49:16.644Z,24.93
2018-12-22T09:51:44.404Z,23.67
2018-12-22T09:54:11.966Z,31.10
2018-12-22T09:56:39.654Z,26.40
2018-12-22T09:59:07.192Z,32.77
2018-12-22T10:01:35.034Z,17.33
2018-12-22T10:04:02.688Z,13.40
2018-12-22T10:06:30.239Z,33.57
2018-12-22T10:08:58.228Z,19.27
2018-12-22T10:11:25.800Z,30.93
2018-12-22T10:13:53.438Z,24.73
2018-12-22T10:16:21.165Z,39.40
2018-12-22T10:18:48.803Z,20.80
2018-12-22T10:21:16.853Z,16.47
2018-12-22T10:23:45.547Z,16.60
2018-12-22T10:26:13.092Z,20.20
2018-12-22T10:28:41.201Z,9.93
2018-12-22T10:31:08.729Z,14.47
2018-12-22T10:33:36.901Z,20.20
2018-12-22T10:36:04.462Z,12.30
2018-12-22T10:38:32.387Z,14.70
2018-12-22T10:41:00.028Z,2.63
2018-12-22T10:43:27.688Z,7.50
2018-12-22T10:45:55.237Z,8.90
2018-12-22T10:48:23.067Z,12.90
2018-12-22T10:50:50.851Z,6.33
2018-12-22T10:53:18.434Z,9.33
2018-12-22T10:55:46.000Z,7.77
2018-12-22T10:58:13.717Z,12.47
2018-12-22T11:00:41.320Z,6.20
2018-12-22T11:03:09.443Z,3.77
2018-12-22T11:05:37.024Z,10.57
2018-12-22T11:08:04.982Z,3.83
2018-12-22T11:10:32.604Z,8.53
2018-12-22T11:13:00.504Z,10.33
2018-12-22T11:15:28.181Z,6.00
2018-12-22T11:17:58.532Z,4.50
2018-12-22T11:20:26.453Z,4.93
2018-12-22T11:22:54.319Z,3.80
2018-12-22T11:25:21.910Z,8.37
2018-12-22T11:27:49.755Z,6.43
2018-12-22T11:30:21.225Z,5.93
2018-12-22T11:32:48.965Z,7.23
2018-12-22T11:35:16.500Z,1.77
2018-12-22T11:37:44.629Z,13.50
2018-12-22T11:40:12.319Z,3.53
2018-12-22T11:42:47.526Z,9.30
2018-12-22T11:45:10.120Z,4.73
2018-12-22T11:47:41.115Z,6.27
2018-12-22T11:50:16.295Z,4.30
2018-12-22T11:52:44.067Z,4.50
2018-12-22T11:55:11.619Z,8.07
2018-12-22T11:57:39.320Z,2.00
2018-12-22T12:00:09.128Z,4.10
2018-12-22T12:02:36.892Z,4.37
2018-12-22T12:05:08.183Z,2.20
2018-12-22T12:07:36.138Z,4.07
2018-12-22T12:10:06.132Z,1.70
2018-12-22T12:12:33.849Z,1.70
2018-12-22T12:15:01.427Z,3.53
2018-12-22T12:17:41.108Z,3.60
2018-12-22T12:20:08.782Z,3.90
2018-12-22T12:22:36.800Z,1.80
2018-12-22T12:25:05.096Z,2.10
2018-12-22T12:27:32.761Z,1.20
2018-12-22T12:30:00.308Z,3.03
2018-12-22T12:32:27.998Z,1.40
2018-12-22T12:34:55.531Z,2.00
2018-12-22T12:37:23.620Z,4.10
2018-12-22T12:39:51.268Z,1.10
2018-12-22T12:42:19.342Z,1.97
2018-12-22T12:44:47.005Z,2.60
2018-12-22T12:47:14.658Z,1.33
2018-12-22T12:49:42.302Z,0.80
2018-12-22T12:52:09.851Z,1.00
2018-12-22T12:54:37.865Z,1.93
2018-12-22T12:57:05.487Z,1.00
2018-12-22T12:59:33.378Z,0.97
2018-12-22T13:02:01.515Z,1.53
2018-12-22T13:04:29.577Z,1.00
2018-12-22T13:06:57.117Z,4.67
2018-12-22T13:09:24.775Z,3.53
2018-12-22T13:11:52.305Z,1.13
2018-12-22T13:14:20.515Z,3.30
2018-12-22T13:16:48.038Z,1.20
2018-12-22T13:19:15.691Z,1.93
2018-12-22T13:21:43.984Z,0.77
2018-12-22T13:24:11.677Z,0.80
2018-12-22T13:26:39.300Z,2.00
2018-12-22T13:29:06.819Z,1.70
2018-12-22T13:31:35.131Z,1.20
2018-12-22T13:34:02.764Z,3.80
2018-12-22T13:36:34.596Z,1.77
2018-12-22T13:39:00.357Z,0.60
2018-12-22T13:41:27.885Z,3.57
2018-12-22T13:43:55.423Z,1.20
2018-12-22T13:46:23.083Z,1.63
2018-12-22T13:48:51.458Z,1.57
2018-12-22T13:51:19.413Z,1.50
2018-12-22T13:53:47.155Z,2.33
2018-12-22T13:56:15.436Z,2.40
2018-12-22T13:58:42.987Z,2.40
2018-12-22T14:01:11.091Z,1.63
2018-12-22T14:03:38.702Z,3.00
2018-12-22T14:06:07.439Z,3.40
2018-12-22T14:08:34.974Z,2.40
2018-12-22T14:11:02.625Z,2.43
2018-12-22T14:13:30.147Z,6.13
2018-12-22T14:15:58.228Z,2.80
2018-12-22T14:18:30.502Z,2.67
2018-12-22T14:20:58.932Z,2.73
2018-12-22T14:23:31.213Z,1.77
2018-12-22T14:25:59.156Z,1.80
2018-12-22T14:28:26.707Z,1.63
2018-12-22T14:30:54.920Z,2.30
2018-12-22T14:33:22.451Z,3.67
2018-12-22T14:35:51.566Z,1.80
2018-12-22T14:38:19.104Z,2.40
2018-12-22T14:40:47.177Z,1.37
2018-12-22T14:43:14.714Z,1.30
2018-12-22T14:45:42.829Z,2.50
2018-12-22T14:48:10.427Z,1.10
2018-12-22T14:50:38.229Z,1.00
2018-12-22T14:53:05.759Z,1.80
2018-12-22T14:55:33.455Z,1.47
2018-12-22T14:58:02.284Z,4.60
2018-12-22T15:00:30.153Z,4.20
2018-12-22T15:02:57.669Z,0.70
2018-12-22T15:05:25.656Z,1.17
2018-12-22T15:07:53.179Z,1.27
2018-12-22T15:10:20.876Z,1.37
2018-12-22T15:12:48.438Z,1.43
2018-12-22T15:15:15.988Z,2.40
2018-12-22T15:17:44.039Z,1.60
2018-12-22T15:20:15.697Z,1.50
2018-12-22T15:22:43.798Z,1.00
2018-12-22T15:25:11.314Z,1.30
2018-12-22T15:27:39.290Z,3.50
2018-12-22T15:30:13.520Z,1.37
2018-12-22T15:32:46.298Z,1.03
2018-12-22T15:35:11.010Z,1.10
2018-12-22T15:37:38.554Z,1.40
2018-12-22T15:40:10.455Z,0.80
2018-12-22T15:42:37.986Z,2.47
2018-12-22T15:45:11.127Z,1.00
2018-12-22T15:47:38.780Z,1.43
2018-12-22T15:50:11.421Z,1.43
2018-12-22T15:52:39.097Z,2.20
2018-12-22T15:55:08.409Z,1.40
2018-12-22T15:57:36.453Z,1.07
2018-12-22T16:00:08.324Z,1.10
2018-12-22T16:02:35.990Z,1.00
2018-12-22T16:05:05.963Z,1.23
2018-12-22T16:07:33.688Z,1.00
2018-12-22T16:10:01.317Z,0.93
2018-12-22T16:12:29.555Z,2.90
2018-12-22T16:14:57.098Z,1.27
2018-12-22T16:17:25.096Z,1.23
2018-12-22T16:19:52.644Z,1.23
2018-12-22T16:22:20.836Z,1.57
2018-12-22T16:24:48.361Z,2.60
2018-12-22T16:27:16.019Z,10.03
2018-12-22T16:29:43.581Z,0.90
2018-12-22T16:32:11.772Z,1.57
2018-12-22T16:34:39.517Z,1.93
2018-12-22T16:37:07.236Z,2.17
2018-12-22T16:39:34.902Z,3.07
2018-12-22T16:42:02.502Z,2.93
2018-12-22T16:44:30.186Z,1.77
2018-12-22T16:46:57.792Z,7.10
2018-12-22T16:49:25.730Z,3.53
2018-12-22T16:51:53.288Z,2.30
2018-12-22T16:54:21.031Z,3.90
2018-12-22T16:56:48.558Z,3.10
2018-12-22T16:59:16.458Z,2.87
2018-12-22T17:01:44.743Z,3.00
2018-12-22T17:04:14.253Z,3.93
2018-12-22T17:06:41.860Z,3.17
2018-12-22T17:09:10.999Z,4.20
2018-12-22T17:11:38.848Z,3.47
2018-12-22T17:14:07.628Z,3.40
2018-12-22T17:16:35.987Z,2.40
2018-12-22T17:19:03.612Z,4.03
2018-12-22T17:21:33.276Z,3.50
2018-12-22T17:24:01.816Z,2.70
2018-12-22T17:26:31.013Z,3.10
2018-12-22T17:28:58.535Z,8.80
2018-12-22T17:31:26.642Z,5.20
2018-12-22T17:33:54.225Z,7.40
2018-12-22T17:36:21.893Z,4.43
2018-12-22T17:38:49.415Z,4.77
2018-12-22T17:41:19.129Z,3.57
2018-12-22T17:43:46.835Z,8.30
2018-12-22T17:46:14.597Z,2.97
2018-12-22T17:48:42.137Z,3.30
2018-12-22T17:51:10.277Z,3.27
2018-12-22T17:53:38.044Z,5.03
2018-12-22T17:56:05.900Z,3.83
2018-12-22T17:58:33.420Z,4.17
2018-12-22T18:01:02.156Z,4.13
2018-12-22T18:03:29.777Z,3.83
2018-12-22T18:05:57.786Z,3.73
2018-12-22T18:08:25.325Z,9.47
2018-12-22T18:10:53.462Z,4.20
2018-12-22T18:13:21.014Z,8.63
2018-12-22T18:15:49.060Z,5.40
2018-12-22T18:18:16.624Z,4.60
2018-12-22T18:20:44.948Z,3.20
2018-12-22T18:23:12.919Z,6.70
2018-12-22T18:25:40.774Z,4.70
2018-12-22T18:28:08.368Z,3.83
2018-12-22T18:30:36.357Z,4.57
2018-12-22T18:33:03.904Z,5.60
2018-12-22T18:35:31.725Z,3.83
2018-12-22T18:37:59.338Z,2.77
2018-12-22T18:40:26.979Z,4.00
2018-12-22T18:42:54.499Z,4.20
2018-12-22T18:45:22.692Z,4.73
2018-12-22T18:47:50.237Z,5.23
2018-12-22T18:50:21.734Z,4.10
2018-12-22T18:52:49.469Z,4.97
2018-12-22T18:55:17.268Z,6.00
2018-12-22T18:57:47.211Z,4.60
2018-12-22T19:00:18.810Z,4.80
2018-12-22T19:02:46.353Z,6.60
2018-12-22T19:05:15.253Z,5.57
2018-12-22T19:07:42.780Z,5.77
2018-12-22T19:10:15.443Z,5.57
2018-12-22T19:12:43.007Z,2.57
2018-12-22T19:15:11.003Z,2.53
2018-12-22T19:17:38.563Z,2.07
2018-12-22T19:23:03.398Z,4.27
2018-12-22T19:25:31.133Z,2.63
2018-12-22T19:27:58.662Z,6.37
2018-12-22T19:30:26.636Z,1.87
2018-12-22T19:32:54.501Z,2.00
2018-12-22T19:35:22.117Z,3.40
2018-12-22T19:37:50.050Z,3.30
2018-12-22T19:40:17.748Z,1.90
2018-12-22T19:42:45.327Z,2.70
2018-12-22T19:45:13.403Z,3.23
2018-12-22T19:47:40.938Z,3.30
2018-12-22T19:50:08.840Z,4.60
2018-12-22T19:52:36.528Z,8.60
2018-12-22T19:55:06.104Z,4.87
2018-12-22T19:57:33.968Z,4.83
2018-12-22T20:00:01.518Z,9.47
2018-12-22T20:02:29.404Z,7.93
2018-12-22T20:04:56.975Z,6.50
2018-12-22T20:07:24.739Z,3.10
2018-12-22T20:09:52.321Z,5.97
2018-12-22T20:12:20.248Z,11.27
2018-12-22T20:14:47.898Z,6.53
2018-12-22T20:17:15.583Z,6.03
2018-12-22T20:19:43.816Z,5.40
2018-12-22T20:22:11.687Z,7.10
2018-12-22T20:24:39.339Z,7.03
2018-12-22T20:27:06.889Z,4.00
2018-12-22T20:29:34.534Z,15.63
2018-12-22T20:32:02.065Z,10.00
2018-12-22T20:34:29.741Z,8.37
2018-12-22T20:36:57.281Z,4.50
2018-12-22T20:39:25.254Z,6.20
2018-12-22T20:41:52.793Z,11.67
2018-12-22T20:44:20.471Z,3.90
2018-12-22T20:46:48.024Z,5.97
2018-12-22T20:49:15.678Z,9.43
2018-12-22T20:51:43.213Z,8.47
2018-12-22T20:54:10.901Z,5.40
2018-12-22T20:56:38.439Z,4.50
2018-12-22T20:59:06.452Z,7.47
2018-12-22T21:01:34.098Z,4.90
2018-12-22T21:04:01.772Z,4.33
2018-12-22T21:06:32.224Z,12.33
2018-12-22T21:09:00.254Z,5.57
2018-12-22T21:11:27.824Z,5.23
2018-12-22T21:13:55.905Z,5.90
2018-12-22T21:16:23.434Z,4.00
2018-12-22T21:18:51.432Z,4.00
2018-12-22T21:21:19.444Z,2.90
2018-12-22T21:23:47.079Z,5.33
2018-12-22T21:26:14.630Z,4.23
2018-12-22T21:28:42.282Z,6.93
2018-12-22T21:31:09.822Z,4.00
2018-12-22T21:33:37.830Z,4.87
2018-12-22T21:36:05.367Z,5.03
2018-12-22T21:38:33.013Z,5.33
2018-12-22T21:41:00.555Z,6.23
2018-12-22T21:43:28.335Z,3.47
2018-12-22T21:45:55.882Z,4.50
2018-12-22T21:48:24.926Z,4.40
2018-12-22T21:50:52.458Z,5.57
2018-12-22T21:53:20.328Z,5.00
2018-12-22T21:55:48.243Z,7.30
2018-12-22T21:58:15.774Z,4.10
2018-12-22T22:00:43.433Z,8.90
2018-12-22T22:03:10.975Z,8.57
2018-12-22T22:05:38.842Z,3.80
2018-12-22T22:08:06.452Z,7.13
2018-12-22T22:10:34.376Z,4.40
2018-12-22T22:13:02.090Z,5.33
2018-12-22T22:15:29.734Z,5.70
2018-12-22T22:17:57.262Z,5.20
2018-12-22T22:20:25.219Z,5.80
2018-12-22T22:22:53.277Z,7.30
2018-12-22T22:25:20.956Z,6.27
2018-12-22T22:27:48.477Z,7.57
2018-12-22T22:30:16.126Z,7.50
2018-12-22T22:32:43.698Z,3.50
2018-12-22T22:35:11.459Z,6.50
2018-12-22T22:37:39.007Z,3.60
2018-12-22T22:40:07.185Z,10.80
2018-12-22T22:42:34.711Z,5.27
2018-12-22T22:45:02.631Z,3.03
2018-12-22T22:47:30.421Z,3.20
2018-12-22T22:49:58.197Z,5.00
2018-12-22T22:52:25.718Z,2.27
2018-12-22T22:54:53.505Z,3.83
2018-12-22T22:57:21.354Z,7.63
2018-12-22T22:59:49.429Z,2.97
2018-12-22T23:02:17.197Z,4.07
2018-12-22T23:04:45.163Z,5.83
2018-12-22T23:07:12.680Z,1.90
2018-12-22T23:09:40.528Z,3.93
2018-12-22T23:12:08.060Z,3.03
2018-12-22T23:14:36.448Z,7.70
2018-12-22T23:17:03.980Z,6.70
2018-12-22T23:19:32.131Z,2.80
2018-12-22T23:22:00.204Z,7.53
2018-12-22T23:24:28.132Z,5.70
2018-12-22T23:26:55.661Z,3.00
2018-12-22T23:29:23.564Z,2.80
2018-12-22T23:31:51.099Z,2.27
2018-12-22T23:34:18.767Z,4.30
2018-12-22T23:36:46.308Z,2.30
2018-12-22T23:39:14.224Z,1.37
2018-12-22T23:41:42.549Z,4.73
2018-12-22T23:44:10.534Z,2.60
2018-12-22T23:46:38.709Z,9.40
2018-12-22T23:49:06.238Z,5.00
2018-12-22T23:51:33.942Z,3.50
2018-12-22T23:54:01.460Z,6.37
2018-12-22T23:56:29.630Z,13.80
2018-12-22T23:58:57.177Z,15.03
